sensor_id;sensor_type;location;lat;lon;timestamp;pressure;altitude;pressure_sealevel;temperature;humidity
6096;BME280;25081;42.698;23.298;2023-01-26T00:01:09;95752.05;;;-0.66;83.01
6096;BME280;25081;42.698;23.298;2023-01-26T00:03:19;95753.76;;;-0.61;83.26
6096;BME280;25081;42.698;23.298;2023-01-26T00:05:29;95757.97;;;-0.64;83.49
6096;BME280;25081;42.698;23.298;2023-01-26T00:07:40;95765.25;;;-0.77;84.27
6096;BME280;25081;42.698;23.298;2023-01-26T00:09:50;95767.74;;;-0.85;84.21
6096;BME280;25081;42.698;23.298;2023-01-26T00:12:01;95756.52;;;-0.72;84.05
6096;BME280;25081;42.698;23.298;2023-01-26T00:14:11;95752.54;;;-0.67;83.82
6096;BME280;25081;42.698;23.298;2023-01-26T00:16:21;95767.05;;;-0.68;83.39
6096;BME280;25081;42.698;23.298;2023-01-26T00:18:32;95762.02;;;-0.85;84.22
6096;BME280;25081;42.698;23.298;2023-01-26T00:20:42;95777.29;;;-0.90;84.22
6096;BME280;25081;42.698;23.298;2023-01-26T00:22:53;95772.97;;;-0.85;83.76
6096;BME280;25081;42.698;23.298;2023-01-26T00:25:03;95771.05;;;-0.83;83.67
6096;BME280;25081;42.698;23.298;2023-01-26T00:27:14;95766.63;;;-0.83;83.72
6096;BME280;25081;42.698;23.298;2023-01-26T00:29:24;95769.95;;;-0.71;83.20
6096;BME280;25081;42.698;23.298;2023-01-26T00:31:35;95760.45;;;-0.63;82.99
6096;BME280;25081;42.698;23.298;2023-01-26T00:33:45;95746.19;;;-0.54;82.63
6096;BME280;25081;42.698;23.298;2023-01-26T00:35:55;95751.22;;;-0.76;82.77
6096;BME280;25081;42.698;23.298;2023-01-26T00:38:06;95744.20;;;-0.76;83.23
6096;BME280;25081;42.698;23.298;2023-01-26T00:40:17;95732.53;;;-0.77;83.20
6096;BME280;25081;42.698;23.298;2023-01-26T00:42:27;95732.08;;;-0.77;82.77
6096;BME280;25081;42.698;23.298;2023-01-26T00:44:39;95731.94;;;-0.75;82.56
6096;BME280;25081;42.698;23.298;2023-01-26T00:46:49;95736.53;;;-0.83;82.81
6096;BME280;25081;42.698;23.298;2023-01-26T00:48:59;95730.77;;;-0.77;82.84
6096;BME280;25081;42.698;23.298;2023-01-26T00:51:09;95730.88;;;-0.69;82.59
6096;BME280;25081;42.698;23.298;2023-01-26T00:53:20;95727.09;;;-0.70;82.05
6096;BME280;25081;42.698;23.298;2023-01-26T00:55:30;95724.91;;;-0.84;82.22
6096;BME280;25081;42.698;23.298;2023-01-26T00:57:41;95728.97;;;-0.86;82.65
6096;BME280;25081;42.698;23.298;2023-01-26T00:59:51;95729.56;;;-0.88;82.66
6096;BME280;25081;42.698;23.298;2023-01-26T01:02:02;95722.29;;;-0.75;82.65
6096;BME280;25081;42.698;23.298;2023-01-26T01:04:12;95718.13;;;-0.68;82.39
6096;BME280;25081;42.698;23.298;2023-01-26T01:06:22;95711.53;;;-0.72;82.33
6096;BME280;25081;42.698;23.298;2023-01-26T01:08:33;95718.75;;;-0.99;82.93
6096;BME280;25081;42.698;23.298;2023-01-26T01:10:43;95707.27;;;-0.82;82.87
6096;BME280;25081;42.698;23.298;2023-01-26T01:12:53;95706.30;;;-0.81;82.42
6096;BME280;25081;42.698;23.298;2023-01-26T01:15:05;95708.63;;;-0.88;82.77
6096;BME280;25081;42.698;23.298;2023-01-26T01:17:16;95708.77;;;-0.90;82.27
6096;BME280;25081;42.698;23.298;2023-01-26T01:19:26;95703.88;;;-0.89;82.16
6096;BME280;25081;42.698;23.298;2023-01-26T01:21:36;95709.88;;;-0.82;82.21
6096;BME280;25081;42.698;23.298;2023-01-26T01:23:47;95698.05;;;-0.87;81.94
6096;BME280;25081;42.698;23.298;2023-01-26T01:25:58;95702.03;;;-0.82;81.99
6096;BME280;25081;42.698;23.298;2023-01-26T01:28:08;95702.72;;;-0.71;81.63
6096;BME280;25081;42.698;23.298;2023-01-26T01:30:19;95703.97;;;-0.75;81.13
6096;BME280;25081;42.698;23.298;2023-01-26T01:32:29;95706.78;;;-0.82;81.42
6096;BME280;25081;42.698;23.298;2023-01-26T01:34:40;95701.60;;;-0.88;81.54
6096;BME280;25081;42.698;23.298;2023-01-26T01:36:50;95695.48;;;-0.82;81.44
6096;BME280;25081;42.698;23.298;2023-01-26T01:39:01;95691.08;;;-0.92;81.73
6096;BME280;25081;42.698;23.298;2023-01-26T01:41:11;95700.23;;;-0.92;81.51
6096;BME280;25081;42.698;23.298;2023-01-26T01:43:23;95699.27;;;-1.00;81.62
6096;BME280;25081;42.698;23.298;2023-01-26T01:45:42;95702.30;;;-1.05;81.62
6096;BME280;25081;42.698;23.298;2023-01-26T01:47:51;95699.68;;;-1.14;81.39
6096;BME280;25081;42.698;23.298;2023-01-26T01:50:02;95695.19;;;-1.08;81.48
6096;BME280;25081;42.698;23.298;2023-01-26T01:52:13;95700.03;;;-0.94;80.94
6096;BME280;25081;42.698;23.298;2023-01-26T01:54:25;95693.00;;;-1.03;80.97
6096;BME280;25081;42.698;23.298;2023-01-26T01:56:35;95695.00;;;-1.01;81.05
6096;BME280;25081;42.698;23.298;2023-01-26T01:58:46;95693.20;;;-1.01;80.77
6096;BME280;25081;42.698;23.298;2023-01-26T02:00:56;95691.08;;;-0.92;80.83
6096;BME280;25081;42.698;23.298;2023-01-26T02:03:07;95693.70;;;-0.92;80.40
6096;BME280;25081;42.698;23.298;2023-01-26T02:05:25;95687.15;;;-1.01;80.24
6096;BME280;25081;42.698;23.298;2023-01-26T02:07:35;95686.61;;;-0.95;80.30
6096;BME280;25081;42.698;23.298;2023-01-26T02:09:45;95683.77;;;-0.98;80.46
6096;BME280;25081;42.698;23.298;2023-01-26T02:12:13;95682.45;;;-0.98;80.54
6096;BME280;25081;42.698;23.298;2023-01-26T02:14:23;95673.59;;;-1.01;80.96
6096;BME280;25081;42.698;23.298;2023-01-26T02:16:34;95672.96;;;-0.89;80.64
6096;BME280;25081;42.698;23.298;2023-01-26T02:18:44;95670.20;;;-1.07;80.40
6096;BME280;25081;42.698;23.298;2023-01-26T02:20:56;95660.92;;;-1.15;80.76
6096;BME280;25081;42.698;23.298;2023-01-26T02:23:07;95659.39;;;-1.08;80.74
6096;BME280;25081;42.698;23.298;2023-01-26T02:25:22;95649.50;;;-1.14;80.54
6096;BME280;25081;42.698;23.298;2023-01-26T02:27:30;95648.78;;;-1.16;80.44
6096;BME280;25081;42.698;23.298;2023-01-26T02:29:40;95642.73;;;-1.17;80.66
6096;BME280;25081;42.698;23.298;2023-01-26T02:31:50;95641.65;;;-1.04;80.73
6096;BME280;25081;42.698;23.298;2023-01-26T02:34:02;95640.39;;;-1.00;80.08
6096;BME280;25081;42.698;23.298;2023-01-26T02:36:16;95635.84;;;-1.08;80.50
6096;BME280;25081;42.698;23.298;2023-01-26T02:38:27;95633.72;;;-1.08;80.43
6096;BME280;25081;42.698;23.298;2023-01-26T02:40:39;95632.16;;;-1.05;80.44
6096;BME280;25081;42.698;23.298;2023-01-26T02:42:47;95628.00;;;-0.98;80.25
6096;BME280;25081;42.698;23.298;2023-01-26T02:44:58;95631.91;;;-0.89;79.84
6096;BME280;25081;42.698;23.298;2023-01-26T02:47:12;95627.17;;;-1.08;80.25
6096;BME280;25081;42.698;23.298;2023-01-26T02:49:22;95623.93;;;-0.97;80.48
6096;BME280;25081;42.698;23.298;2023-01-26T02:51:50;95619.17;;;-0.88;80.25
6096;BME280;25081;42.698;23.298;2023-01-26T02:54:01;95615.88;;;-0.99;80.92
6096;BME280;25081;42.698;23.298;2023-01-26T02:56:11;95620.09;;;-1.02;81.14
6096;BME280;25081;42.698;23.298;2023-01-26T02:58:22;95608.72;;;-1.07;81.43
6096;BME280;25081;42.698;23.298;2023-01-26T03:00:33;95615.41;;;-1.18;81.66
6096;BME280;25081;42.698;23.298;2023-01-26T03:02:43;95608.67;;;-1.11;81.60
6096;BME280;25081;42.698;23.298;2023-01-26T03:04:54;95607.42;;;-1.17;81.65
6096;BME280;25081;42.698;23.298;2023-01-26T03:07:04;95592.34;;;-1.09;81.45
6096;BME280;25081;42.698;23.298;2023-01-26T03:09:15;95599.99;;;-1.02;80.97
6096;BME280;25081;42.698;23.298;2023-01-26T03:11:25;95605.36;;;-1.03;81.09
6096;BME280;25081;42.698;23.298;2023-01-26T03:13:36;95603.86;;;-1.06;81.15
6096;BME280;25081;42.698;23.298;2023-01-26T03:15:46;95604.45;;;-1.18;81.54
6096;BME280;25081;42.698;23.298;2023-01-26T03:18:04;95590.41;;;-1.17;81.94
6096;BME280;25081;42.698;23.298;2023-01-26T03:20:31;95589.59;;;-1.07;82.02
6096;BME280;25081;42.698;23.298;2023-01-26T03:23:00;95591.67;;;-1.21;81.87
6096;BME280;25081;42.698;23.298;2023-01-26T03:25:28;95583.34;;;-1.20;82.03
6096;BME280;25081;42.698;23.298;2023-01-26T03:27:56;95585.67;;;-1.27;82.03
6096;BME280;25081;42.698;23.298;2023-01-26T03:30:08;95574.04;;;-1.19;81.94
6096;BME280;25081;42.698;23.298;2023-01-26T03:32:18;95569.28;;;-1.09;81.72
6096;BME280;25081;42.698;23.298;2023-01-26T03:34:29;95577.33;;;-1.07;81.52
6096;BME280;25081;42.698;23.298;2023-01-26T03:36:39;95582.31;;;-1.13;81.48
6096;BME280;25081;42.698;23.298;2023-01-26T03:38:49;95568.27;;;-1.22;81.77
6096;BME280;25081;42.698;23.298;2023-01-26T03:41:00;95572.40;;;-1.29;81.89
6096;BME280;25081;42.698;23.298;2023-01-26T03:43:28;95572.73;;;-1.28;82.23
6096;BME280;25081;42.698;23.298;2023-01-26T03:45:56;95569.30;;;-1.29;81.99
6096;BME280;25081;42.698;23.298;2023-01-26T03:48:24;95573.08;;;-1.37;82.14
6096;BME280;25081;42.698;23.298;2023-01-26T03:50:52;95565.17;;;-1.31;81.82
6096;BME280;25081;42.698;23.298;2023-01-26T03:53:21;95558.10;;;-1.35;82.01
6096;BME280;25081;42.698;23.298;2023-01-26T03:55:48;95564.02;;;-1.33;82.12
6096;BME280;25081;42.698;23.298;2023-01-26T03:58:17;95561.26;;;-1.41;82.16
6096;BME280;25081;42.698;23.298;2023-01-26T04:00:27;95552.98;;;-1.36;82.36
6096;BME280;25081;42.698;23.298;2023-01-26T04:02:37;95554.86;;;-1.33;81.98
6096;BME280;25081;42.698;23.298;2023-01-26T04:05:07;95552.73;;;-1.33;82.03
6096;BME280;25081;42.698;23.298;2023-01-26T04:07:35;95553.32;;;-1.26;82.21
6096;BME280;25081;42.698;23.298;2023-01-26T04:10:03;95546.78;;;-1.26;82.67
6096;BME280;25081;42.698;23.298;2023-01-26T04:12:14;95538.35;;;-1.33;82.54
6096;BME280;25081;42.698;23.298;2023-01-26T04:14:24;95544.17;;;-1.45;82.89
6096;BME280;25081;42.698;23.298;2023-01-26T04:16:52;95539.32;;;-1.44;83.11
6096;BME280;25081;42.698;23.298;2023-01-26T04:19:20;95531.95;;;-1.35;83.21
6096;BME280;25081;42.698;23.298;2023-01-26T04:21:49;95528.22;;;-1.23;82.63
6096;BME280;25081;42.698;23.298;2023-01-26T04:23:59;95521.59;;;-1.27;82.56
6096;BME280;25081;42.698;23.298;2023-01-26T04:26:09;95507.12;;;-1.35;82.76
6096;BME280;25081;42.698;23.298;2023-01-26T04:28:20;95509.16;;;-1.29;82.73
6096;BME280;25081;42.698;23.298;2023-01-26T04:30:30;95507.92;;;-1.25;82.50
6096;BME280;25081;42.698;23.298;2023-01-26T04:32:40;95500.29;;;-1.32;82.71
6096;BME280;25081;42.698;23.298;2023-01-26T04:34:51;95506.19;;;-1.20;82.38
6096;BME280;25081;42.698;23.298;2023-01-26T04:37:01;95511.63;;;-1.27;82.32
6096;BME280;25081;42.698;23.298;2023-01-26T04:39:12;95518.16;;;-1.27;81.92
6096;BME280;25081;42.698;23.298;2023-01-26T04:41:22;95503.59;;;-1.30;82.30
6096;BME280;25081;42.698;23.298;2023-01-26T04:43:33;95499.52;;;-1.28;82.19
6096;BME280;25081;42.698;23.298;2023-01-26T04:45:43;95510.75;;;-1.32;82.06
6096;BME280;25081;42.698;23.298;2023-01-26T04:47:54;95510.89;;;-1.33;82.17
6096;BME280;25081;42.698;23.298;2023-01-26T04:50:05;95512.40;;;-1.31;82.05
6096;BME280;25081;42.698;23.298;2023-01-26T04:52:16;95498.89;;;-1.26;82.06
6096;BME280;25081;42.698;23.298;2023-01-26T04:54:26;95513.36;;;-1.32;82.01
6096;BME280;25081;42.698;23.298;2023-01-26T04:56:36;95505.51;;;-1.22;82.21
6096;BME280;25081;42.698;23.298;2023-01-26T04:58:47;95521.20;;;-1.22;82.02
6096;BME280;25081;42.698;23.298;2023-01-26T05:00:57;95512.44;;;-1.17;82.05
6096;BME280;25081;42.698;23.298;2023-01-26T05:03:08;95512.58;;;-1.19;81.58
6096;BME280;25081;42.698;23.298;2023-01-26T05:05:18;95511.48;;;-1.26;81.82
6096;BME280;25081;42.698;23.298;2023-01-26T05:07:28;95511.02;;;-1.16;81.65
6096;BME280;25081;42.698;23.298;2023-01-26T05:09:39;95515.76;;;-1.15;81.59
6096;BME280;25081;42.698;23.298;2023-01-26T05:11:49;95511.45;;;-1.06;81.03
6096;BME280;25081;42.698;23.298;2023-01-26T05:13:59;95510.58;;;-1.11;81.15
6096;BME280;25081;42.698;23.298;2023-01-26T05:16:10;95507.14;;;-1.11;81.05
6096;BME280;25081;42.698;23.298;2023-01-26T05:18:20;95506.84;;;-1.08;81.03
6096;BME280;25081;42.698;23.298;2023-01-26T05:20:31;95509.80;;;-1.07;81.02
6096;BME280;25081;42.698;23.298;2023-01-26T05:22:41;95523.70;;;-1.07;81.10
6096;BME280;25081;42.698;23.298;2023-01-26T05:24:52;95509.56;;;-1.14;81.09
6096;BME280;25081;42.698;23.298;2023-01-26T05:27:02;95502.05;;;-1.13;82.20
6096;BME280;25081;42.698;23.298;2023-01-26T05:29:31;95511.19;;;-1.03;81.77
6096;BME280;25081;42.698;23.298;2023-01-26T05:31:42;95500.89;;;-1.14;81.39
6096;BME280;25081;42.698;23.298;2023-01-26T05:33:52;95498.47;;;-1.12;81.26
6096;BME280;25081;42.698;23.298;2023-01-26T05:36:05;95499.34;;;-1.07;81.21
6096;BME280;25081;42.698;23.298;2023-01-26T05:38:15;95499.34;;;-1.07;81.06
6096;BME280;25081;42.698;23.298;2023-01-26T05:40:26;95494.08;;;-0.98;80.58
6096;BME280;25081;42.698;23.298;2023-01-26T05:42:36;95500.91;;;-1.01;80.23
6096;BME280;25081;42.698;23.298;2023-01-26T05:44:47;95496.31;;;-1.03;80.85
6096;BME280;25081;42.698;23.298;2023-01-26T05:46:57;95495.87;;;-0.98;80.43
6096;BME280;25081;42.698;23.298;2023-01-26T05:49:08;95493.19;;;-0.93;80.15
6096;BME280;25081;42.698;23.298;2023-01-26T05:51:18;95495.13;;;-0.95;80.17
6096;BME280;25081;42.698;23.298;2023-01-26T05:53:29;95496.02;;;-1.00;80.24
6096;BME280;25081;42.698;23.298;2023-01-26T05:55:39;95503.72;;;-0.98;80.89
6096;BME280;25081;42.698;23.298;2023-01-26T05:57:50;95494.76;;;-0.86;79.94
6096;BME280;25081;42.698;23.298;2023-01-26T06:00:00;95508.18;;;-0.85;79.90
6096;BME280;25081;42.698;23.298;2023-01-26T06:02:11;95506.13;;;-0.91;80.05
6096;BME280;25081;42.698;23.298;2023-01-26T06:04:21;95505.48;;;-0.89;79.67
6096;BME280;25081;42.698;23.298;2023-01-26T06:06:32;95500.95;;;-0.97;79.82
6096;BME280;25081;42.698;23.298;2023-01-26T06:08:42;95505.52;;;-0.99;80.17
6096;BME280;25081;42.698;23.298;2023-01-26T06:10:53;95502.22;;;-1.01;80.21
6096;BME280;25081;42.698;23.298;2023-01-26T06:13:03;95503.46;;;-0.95;80.28
6096;BME280;25081;42.698;23.298;2023-01-26T06:15:13;95494.34;;;-0.91;80.01
6096;BME280;25081;42.698;23.298;2023-01-26T06:17:24;95484.52;;;-0.79;80.05
6096;BME280;25081;42.698;23.298;2023-01-26T06:19:34;95486.88;;;-0.76;79.82
6096;BME280;25081;42.698;23.298;2023-01-26T06:21:45;95482.09;;;-0.67;79.25
6096;BME280;25081;42.698;23.298;2023-01-26T06:23:55;95483.52;;;-0.82;79.70
6096;BME280;25081;42.698;23.298;2023-01-26T06:26:06;95491.32;;;-0.87;79.70
6096;BME280;25081;42.698;23.298;2023-01-26T06:28:16;95485.94;;;-0.85;80.16
6096;BME280;25081;42.698;23.298;2023-01-26T06:30:27;95478.28;;;-0.82;79.72
6096;BME280;25081;42.698;23.298;2023-01-26T06:32:37;95474.31;;;-0.73;79.54
6096;BME280;25081;42.698;23.298;2023-01-26T06:34:47;95471.21;;;-0.72;79.57
6096;BME280;25081;42.698;23.298;2023-01-26T06:36:58;95473.30;;;-0.62;79.35
6096;BME280;25081;42.698;23.298;2023-01-26T06:39:09;95475.66;;;-0.69;79.72
6096;BME280;25081;42.698;23.298;2023-01-26T06:41:19;95468.67;;;-0.78;79.75
6096;BME280;25081;42.698;23.298;2023-01-26T06:43:30;95477.34;;;-0.77;79.74
6096;BME280;25081;42.698;23.298;2023-01-26T06:45:40;95478.31;;;-0.78;79.72
6096;BME280;25081;42.698;23.298;2023-01-26T06:47:51;95471.89;;;-0.70;79.54
6096;BME280;25081;42.698;23.298;2023-01-26T06:50:01;95475.09;;;-0.76;79.95
6096;BME280;25081;42.698;23.298;2023-01-26T06:52:26;95476.00;;;-0.68;79.86
6096;BME280;25081;42.698;23.298;2023-01-26T06:54:36;95475.96;;;-0.72;80.21
6096;BME280;25081;42.698;23.298;2023-01-26T06:56:46;95470.73;;;-0.72;79.95
6096;BME280;25081;42.698;23.298;2023-01-26T06:58:57;95462.16;;;-0.64;79.96
6096;BME280;25081;42.698;23.298;2023-01-26T07:01:08;95476.63;;;-0.83;79.56
6096;BME280;25081;42.698;23.298;2023-01-26T07:03:18;95465.57;;;-0.77;80.07
6096;BME280;25081;42.698;23.298;2023-01-26T07:05:28;95455.36;;;-0.71;79.54
6096;BME280;25081;42.698;23.298;2023-01-26T07:07:38;95454.16;;;-0.76;79.79
6096;BME280;25081;42.698;23.298;2023-01-26T07:09:49;95460.55;;;-0.75;79.67
6096;BME280;25081;42.698;23.298;2023-01-26T07:11:59;95444.06;;;-0.71;79.96
6096;BME280;25081;42.698;23.298;2023-01-26T07:14:10;95455.17;;;-0.73;79.57
6096;BME280;25081;42.698;23.298;2023-01-26T07:16:20;95452.74;;;-0.71;79.62
6096;BME280;25081;42.698;23.298;2023-01-26T07:18:30;95444.22;;;-0.73;79.88
6096;BME280;25081;42.698;23.298;2023-01-26T07:20:41;95454.39;;;-0.70;79.79
6096;BME280;25081;42.698;23.298;2023-01-26T07:22:52;95454.98;;;-0.62;79.61
6096;BME280;25081;42.698;23.298;2023-01-26T07:25:02;95448.09;;;-0.49;79.45
6096;BME280;25081;42.698;23.298;2023-01-26T07:27:13;95436.40;;;-0.69;79.30
6096;BME280;25081;42.698;23.298;2023-01-26T07:29:23;95443.81;;;-0.78;79.50
6096;BME280;25081;42.698;23.298;2023-01-26T07:31:34;95445.52;;;-0.59;79.75
6096;BME280;25081;42.698;23.298;2023-01-26T07:33:44;95447.33;;;-0.46;79.00
6096;BME280;25081;42.698;23.298;2023-01-26T07:35:54;95437.34;;;-0.46;79.15
6096;BME280;25081;42.698;23.298;2023-01-26T07:38:05;95439.74;;;-0.49;79.37
6096;BME280;25081;42.698;23.298;2023-01-26T07:40:16;95434.81;;;-0.52;79.36
6096;BME280;25081;42.698;23.298;2023-01-26T07:42:26;95437.31;;;-0.33;79.00
6096;BME280;25081;42.698;23.298;2023-01-26T07:44:36;95435.14;;;-0.51;79.07
6096;BME280;25081;42.698;23.298;2023-01-26T07:46:47;95426.31;;;-0.50;79.42
6096;BME280;25081;42.698;23.298;2023-01-26T07:48:57;95434.38;;;-0.47;79.26
6096;BME280;25081;42.698;23.298;2023-01-26T07:51:08;95432.16;;;-0.56;79.62
6096;BME280;25081;42.698;23.298;2023-01-26T07:53:18;95431.41;;;-0.48;79.43
6096;BME280;25081;42.698;23.298;2023-01-26T07:55:28;95432.27;;;0.02;81.28
6096;BME280;25081;42.698;23.298;2023-01-26T07:57:39;95433.36;;;0.13;77.82
6096;BME280;25081;42.698;23.298;2023-01-26T07:59:49;95438.52;;;0.05;77.45
6096;BME280;25081;42.698;23.298;2023-01-26T08:01:59;95432.19;;;-0.07;77.71
6096;BME280;25081;42.698;23.298;2023-01-26T08:04:10;95443.44;;;-0.10;77.71
6096;BME280;25081;42.698;23.298;2023-01-26T08:06:20;95432.32;;;-0.26;78.10
6096;BME280;25081;42.698;23.298;2023-01-26T08:08:31;95425.13;;;-0.24;78.11
6096;BME280;25081;42.698;23.298;2023-01-26T08:10:41;95423.12;;;-0.12;77.92
6096;BME280;25081;42.698;23.298;2023-01-26T08:12:52;95420.65;;;-0.14;77.65
6096;BME280;25081;42.698;23.298;2023-01-26T08:15:02;95419.78;;;-0.01;77.22
6096;BME280;25081;42.698;23.298;2023-01-26T08:17:13;95419.34;;;-0.14;77.32
6096;BME280;25081;42.698;23.298;2023-01-26T08:19:24;95415.19;;;-0.03;77.71
6096;BME280;25081;42.698;23.298;2023-01-26T08:21:34;95407.86;;;-0.17;77.27
6096;BME280;25081;42.698;23.298;2023-01-26T08:23:47;95404.13;;;-0.10;77.30
6096;BME280;25081;42.698;23.298;2023-01-26T08:26:01;95403.78;;;0.03;76.75
6096;BME280;25081;42.698;23.298;2023-01-26T08:28:11;95411.25;;;-0.03;76.88
6096;BME280;25081;42.698;23.298;2023-01-26T08:30:22;95403.04;;;0.10;76.12
6096;BME280;25081;42.698;23.298;2023-01-26T08:32:32;95394.94;;;-0.14;76.35
6096;BME280;25081;42.698;23.298;2023-01-26T08:34:43;95400.48;;;-0.17;76.61
6096;BME280;25081;42.698;23.298;2023-01-26T08:36:53;95406.09;;;-0.12;76.65
6096;BME280;25081;42.698;23.298;2023-01-26T08:39:03;95397.30;;;-0.07;76.56
6096;BME280;25081;42.698;23.298;2023-01-26T08:41:14;95399.62;;;-0.04;76.29
6096;BME280;25081;42.698;23.298;2023-01-26T08:43:24;95386.66;;;0.12;76.16
6096;BME280;25081;42.698;23.298;2023-01-26T08:45:35;95393.57;;;0.17;75.42
6096;BME280;25081;42.698;23.298;2023-01-26T08:47:45;95388.56;;;0.06;75.83
6096;BME280;25081;42.698;23.298;2023-01-26T08:49:55;95394.19;;;0.29;75.41
6096;BME280;25081;42.698;23.298;2023-01-26T08:52:06;95385.64;;;0.49;74.86
6096;BME280;25081;42.698;23.298;2023-01-26T08:54:16;95389.22;;;0.26;74.52
6096;BME280;25081;42.698;23.298;2023-01-26T08:56:27;95400.86;;;0.27;74.53
6096;BME280;25081;42.698;23.298;2023-01-26T08:58:37;95398.62;;;0.11;74.89
6096;BME280;25081;42.698;23.298;2023-01-26T09:00:47;95400.45;;;0.18;74.84
6096;BME280;25081;42.698;23.298;2023-01-26T09:03:01;95398.53;;;0.20;74.35
6096;BME280;25081;42.698;23.298;2023-01-26T09:05:11;95379.00;;;0.19;74.24
6096;BME280;25081;42.698;23.298;2023-01-26T09:07:21;95383.02;;;0.09;74.20
6096;BME280;25081;42.698;23.298;2023-01-26T09:09:32;95413.21;;;0.13;74.15
6096;BME280;25081;42.698;23.298;2023-01-26T09:11:42;95386.83;;;0.33;74.18
6096;BME280;25081;42.698;23.298;2023-01-26T09:13:52;95393.73;;;0.38;73.29
6096;BME280;25081;42.698;23.298;2023-01-26T09:16:05;95446.33;;;0.18;73.23
6096;BME280;25081;42.698;23.298;2023-01-26T09:18:15;95389.12;;;0.57;74.75
6096;BME280;25081;42.698;23.298;2023-01-26T09:20:25;95380.09;;;0.56;72.34
6096;BME280;25081;42.698;23.298;2023-01-26T09:22:35;95380.69;;;0.46;72.78
6096;BME280;25081;42.698;23.298;2023-01-26T09:24:46;95378.91;;;0.28;73.01
6096;BME280;25081;42.698;23.298;2023-01-26T09:26:56;95383.30;;;0.20;73.38
6096;BME280;25081;42.698;23.298;2023-01-26T09:29:06;95395.86;;;0.16;73.53
6096;BME280;25081;42.698;23.298;2023-01-26T09:31:17;95384.20;;;0.11;73.58
6096;BME280;25081;42.698;23.298;2023-01-26T09:33:27;95376.25;;;0.20;73.71
6096;BME280;25081;42.698;23.298;2023-01-26T09:35:37;95358.17;;;0.13;73.84
6096;BME280;25081;42.698;23.298;2023-01-26T09:37:48;95354.64;;;0.22;73.89
6096;BME280;25081;42.698;23.298;2023-01-26T09:39:58;95352.68;;;0.24;73.77
6096;BME280;25081;42.698;23.298;2023-01-26T09:42:33;95343.68;;;0.27;73.78
6096;BME280;25081;42.698;23.298;2023-01-26T09:44:44;95353.67;;;0.27;73.86
6096;BME280;25081;42.698;23.298;2023-01-26T09:47:03;95362.94;;;0.18;74.02
6096;BME280;25081;42.698;23.298;2023-01-26T09:49:14;95365.39;;;0.15;74.30
6096;BME280;25081;42.698;23.298;2023-01-26T09:51:23;95366.44;;;0.22;74.29
6096;BME280;25081;42.698;23.298;2023-01-26T09:53:38;95362.28;;;0.16;74.24
6096;BME280;25081;42.698;23.298;2023-01-26T09:55:47;95349.06;;;0.21;74.44
6096;BME280;25081;42.698;23.298;2023-01-26T09:57:58;95344.17;;;0.26;74.50
6096;BME280;25081;42.698;23.298;2023-01-26T10:00:14;95343.00;;;0.21;74.48
6096;BME280;25081;42.698;23.298;2023-01-26T10:02:32;95327.62;;;0.26;74.32
6096;BME280;25081;42.698;23.298;2023-01-26T10:04:42;95345.13;;;0.21;74.57
6096;BME280;25081;42.698;23.298;2023-01-26T10:06:53;95343.34;;;0.26;74.57
6096;BME280;25081;42.698;23.298;2023-01-26T10:09:05;95339.46;;;0.30;74.47
6096;BME280;25081;42.698;23.298;2023-01-26T10:11:17;95341.34;;;0.42;74.01
6096;BME280;25081;42.698;23.298;2023-01-26T10:13:25;95336.97;;;0.28;74.29
6096;BME280;25081;42.698;23.298;2023-01-26T10:15:36;95336.51;;;0.29;74.24
6096;BME280;25081;42.698;23.298;2023-01-26T10:17:46;95332.09;;;0.30;74.06
6096;BME280;25081;42.698;23.298;2023-01-26T10:19:58;95324.45;;;0.70;73.91
6096;BME280;25081;42.698;23.298;2023-01-26T10:22:11;95315.86;;;0.94;73.97
6096;BME280;25081;42.698;23.298;2023-01-26T10:24:19;95302.45;;;0.67;72.64
6096;BME280;25081;42.698;23.298;2023-01-26T10:26:31;95290.86;;;0.44;73.85
6096;BME280;25081;42.698;23.298;2023-01-26T10:28:41;95284.41;;;0.60;73.82
6096;BME280;25081;42.698;23.298;2023-01-26T10:30:51;95276.25;;;0.71;72.98
6096;BME280;25081;42.698;23.298;2023-01-26T10:33:01;95260.38;;;0.81;72.52
6096;BME280;25081;42.698;23.298;2023-01-26T10:35:17;95269.33;;;0.66;72.99
6096;BME280;25081;42.698;23.298;2023-01-26T10:37:28;95272.48;;;0.70;72.90
6096;BME280;25081;42.698;23.298;2023-01-26T10:39:40;95262.80;;;0.70;73.18
6096;BME280;25081;42.698;23.298;2023-01-26T10:41:58;95249.03;;;0.72;73.01
6096;BME280;25081;42.698;23.298;2023-01-26T10:44:22;95242.34;;;0.78;73.29
6096;BME280;25081;42.698;23.298;2023-01-26T10:46:33;95235.30;;;0.82;72.56
6096;BME280;25081;42.698;23.298;2023-01-26T10:48:43;95223.55;;;0.99;71.75
6096;BME280;25081;42.698;23.298;2023-01-26T10:50:54;95217.28;;;0.92;71.97
6096;BME280;25081;42.698;23.298;2023-01-26T10:53:04;95222.14;;;0.70;72.66
6096;BME280;25081;42.698;23.298;2023-01-26T10:55:19;95207.69;;;0.66;72.77
6096;BME280;25081;42.698;23.298;2023-01-26T10:57:30;95220.34;;;0.71;73.21
6096;BME280;25081;42.698;23.298;2023-01-26T10:59:41;95214.52;;;1.01;72.83
6096;BME280;25081;42.698;23.298;2023-01-26T11:01:55;95216.55;;;1.60;71.88
6096;BME280;25081;42.698;23.298;2023-01-26T11:04:06;95197.33;;;2.52;68.02
6096;BME280;25081;42.698;23.298;2023-01-26T11:06:16;95186.28;;;2.05;67.96
6096;BME280;25081;42.698;23.298;2023-01-26T11:08:33;95189.77;;;1.73;70.64
6096;BME280;25081;42.698;23.298;2023-01-26T11:10:51;95180.15;;;2.25;67.16
6096;BME280;25081;42.698;23.298;2023-01-26T11:13:17;95167.45;;;1.32;69.51
6096;BME280;25081;42.698;23.298;2023-01-26T11:15:27;95164.97;;;1.02;71.44
6096;BME280;25081;42.698;23.298;2023-01-26T11:17:38;95168.72;;;0.79;72.38
6096;BME280;25081;42.698;23.298;2023-01-26T11:22:26;95163.98;;;0.91;72.30
6096;BME280;25081;42.698;23.298;2023-01-26T11:24:38;95157.09;;;0.90;72.44
6096;BME280;25081;42.698;23.298;2023-01-26T11:27:15;95153.65;;;1.06;72.26
6096;BME280;25081;42.698;23.298;2023-01-26T11:29:31;95153.85;;;1.17;71.56
6096;BME280;25081;42.698;23.298;2023-01-26T11:31:44;95147.25;;;1.04;71.66
6096;BME280;25081;42.698;23.298;2023-01-26T11:33:56;95144.63;;;0.88;72.50
6096;BME280;25081;42.698;23.298;2023-01-26T11:36:08;95135.12;;;1.03;72.64
6096;BME280;25081;42.698;23.298;2023-01-26T11:38:23;95135.28;;;1.06;72.04
6096;BME280;25081;42.698;23.298;2023-01-26T11:40:35;95130.53;;;1.01;72.41
6096;BME280;25081;42.698;23.298;2023-01-26T11:42:46;95124.63;;;1.11;72.19
6096;BME280;25081;42.698;23.298;2023-01-26T11:47:41;95146.93;;;1.03;72.67